createdAt,value
2022-11-13T00:01:29.752Z,26.23
2022-11-13T00:04:15.174Z,23.23
2022-11-13T00:07:00.796Z,26.80
2022-11-13T00:09:46.312Z,24.77
2022-11-13T00:12:32.603Z,24.98
2022-11-13T00:15:18.110Z,23.73
2022-11-13T00:18:03.893Z,23.45
2022-11-13T00:20:49.235Z,28.98
2022-11-13T00:23:36.502Z,25.52
2022-11-13T00:26:25.711Z,24.58
2022-11-13T00:29:11.289Z,23.20
2022-11-13T00:31:56.685Z,24.98
2022-11-13T00:34:47.671Z,25.58
2022-11-13T00:37:33.209Z,22.50
2022-11-13T00:40:18.800Z,23.88
2022-11-13T00:43:04.342Z,24.80
2022-11-13T00:45:50.251Z,25.85
2022-11-13T00:48:36.745Z,25.10
2022-11-13T00:51:22.182Z,20.98
2022-11-13T00:54:07.367Z,23.95
2022-11-13T00:56:52.886Z,20.88
2022-11-13T00:59:38.343Z,20.17
2022-11-13T01:02:23.801Z,21.23
2022-11-13T01:05:09.608Z,21.35
2022-11-13T01:07:55.264Z,22.55
2022-11-13T01:10:53.075Z,17.52
2022-11-13T01:13:41.121Z,22.95
2022-11-13T01:16:28.292Z,20.33
2022-11-13T01:19:14.617Z,22.17
2022-11-13T01:22:00.271Z,19.67
2022-11-13T01:24:45.717Z,19.77
2022-11-13T01:27:31.448Z,19.83
2022-11-13T01:30:17.251Z,17.70
2022-11-13T01:33:03.062Z,20.98
2022-11-13T01:35:48.634Z,17.48
2022-11-13T01:38:36.949Z,22.08
2022-11-13T01:41:28.433Z,19.33
2022-11-13T01:44:18.206Z,20.42
2022-11-13T01:47:04.713Z,20.40
2022-11-13T01:49:57.512Z,17.48
2022-11-13T01:52:43.062Z,18.60
2022-11-13T01:55:29.304Z,19.80
2022-11-13T01:58:16.265Z,18.98
2022-11-13T02:01:01.724Z,19.85
2022-11-13T02:03:46.875Z,20.58
2022-11-13T02:06:59.359Z,17.42
2022-11-13T02:09:49.525Z,18.80
2022-11-13T02:12:42.751Z,22.33
2022-11-13T02:15:33.561Z,17.13
2022-11-13T02:18:23.270Z,25.08
2022-11-13T02:21:26.675Z,20.92
2022-11-13T02:24:33.002Z,18.73
2022-11-13T02:27:34.717Z,20.95
2022-11-13T02:30:27.276Z,18.75
2022-11-13T02:33:30.197Z,20.38
2022-11-13T02:36:16.650Z,18.60
2022-11-13T02:39:07.709Z,21.73
2022-11-13T02:41:53.019Z,19.63
2022-11-13T02:44:38.127Z,19.95
2022-11-13T02:47:23.747Z,19.25
2022-11-13T02:50:10.829Z,17.65
2022-11-13T02:52:56.092Z,19.00
2022-11-13T02:55:41.505Z,18.05
2022-11-13T02:58:27.379Z,19.58
2022-11-13T03:01:13.242Z,18.40
2022-11-13T03:03:58.764Z,17.48
2022-11-13T03:06:44.071Z,14.85
2022-11-13T03:09:29.499Z,16.50
2022-11-13T03:12:14.975Z,17.45
2022-11-13T03:15:00.288Z,16.92
2022-11-13T03:17:45.531Z,16.48
2022-11-13T03:20:32.099Z,16.13
2022-11-13T03:23:17.451Z,17.35
2022-11-13T03:26:09.776Z,16.70
2022-11-13T03:28:55.903Z,15.98
2022-11-13T03:31:41.269Z,14.82
2022-11-13T03:34:26.713Z,16.10
2022-11-13T03:37:12.247Z,15.15
2022-11-13T03:39:57.631Z,13.98
2022-11-13T03:42:43.059Z,13.77
2022-11-13T03:45:28.678Z,14.20
2022-11-13T03:48:16.428Z,15.50
2022-11-13T03:51:02.161Z,15.13
2022-11-13T03:53:47.959Z,14.20
2022-11-13T03:56:33.207Z,14.32
2022-11-13T03:59:18.723Z,13.32
2022-11-13T04:02:04.334Z,15.45
2022-11-13T04:04:49.527Z,13.55
2022-11-13T04:07:35.155Z,13.73
2022-11-13T04:10:21.120Z,13.30
2022-11-13T04:13:06.480Z,13.50
2022-11-13T04:15:52.023Z,17.10
2022-11-13T04:18:37.534Z,13.73
2022-11-13T04:21:22.926Z,13.88
2022-11-13T04:24:08.548Z,14.50
2022-11-13T04:26:54.651Z,17.10
2022-11-13T04:29:39.901Z,14.35
2022-11-13T04:32:25.411Z,13.48
2022-11-13T04:35:11.845Z,13.50
2022-11-13T04:37:57.022Z,15.02
2022-11-13T04:40:43.241Z,14.30
2022-11-13T04:43:28.648Z,13.73
2022-11-13T04:46:14.117Z,12.50
2022-11-13T04:48:59.730Z,12.30
2022-11-13T04:51:45.083Z,14.73
2022-11-13T04:54:30.817Z,15.07
2022-11-13T04:57:16.382Z,12.73
2022-11-13T05:00:03.259Z,12.65
2022-11-13T05:02:49.098Z,14.15
2022-11-13T05:05:34.505Z,13.20
2022-11-13T05:08:19.630Z,13.98
2022-11-13T05:11:05.550Z,12.63
2022-11-13T05:13:50.890Z,12.35
2022-11-13T05:16:36.596Z,10.73
2022-11-13T05:19:21.828Z,12.65
2022-11-13T05:22:07.590Z,12.45
2022-11-13T05:24:53.023Z,11.70
2022-11-13T05:27:38.521Z,13.45
2022-11-13T05:30:25.113Z,13.02
2022-11-13T05:33:10.603Z,12.50
2022-11-13T05:35:56.075Z,13.50
2022-11-13T05:38:42.560Z,11.30
2022-11-13T05:41:28.550Z,11.32
2022-11-13T05:44:14.086Z,12.95
2022-11-13T05:46:59.443Z,13.60
2022-11-13T05:49:45.093Z,14.27
2022-11-13T05:52:30.298Z,12.80
2022-11-13T05:55:15.899Z,12.40
2022-11-13T05:58:01.182Z,12.50
2022-11-13T06:00:46.793Z,11.82
2022-11-13T06:03:33.597Z,13.75
2022-11-13T06:06:22.694Z,14.02
2022-11-13T06:09:08.034Z,12.45
2022-11-13T06:11:53.297Z,13.00
2022-11-13T06:14:38.691Z,12.80
2022-11-13T06:17:24.288Z,12.20
2022-11-13T06:20:10.222Z,9.80
2022-11-13T06:22:55.354Z,12.27
2022-11-13T06:25:40.940Z,11.48
2022-11-13T06:28:26.677Z,11.75
2022-11-13T06:31:28.745Z,12.00
2022-11-13T06:34:14.498Z,10.88
2022-11-13T06:37:01.656Z,10.63
2022-11-13T06:39:47.437Z,13.23
2022-11-13T06:42:32.850Z,13.10
2022-11-13T06:45:18.298Z,10.38
2022-11-13T06:48:04.078Z,10.95
2022-11-13T06:50:50.640Z,12.20
2022-11-13T06:53:36.263Z,10.80
2022-11-13T06:56:22.419Z,12.65
2022-11-13T06:59:08.795Z,15.90
2022-11-13T07:01:53.985Z,11.15
2022-11-13T07:04:39.619Z,11.35
2022-11-13T07:07:25.117Z,11.82
2022-11-13T07:10:10.736Z,12.10
2022-11-13T07:13:00.165Z,11.75
2022-11-13T07:15:45.639Z,9.77
2022-11-13T07:18:32.183Z,10.40
2022-11-13T07:21:17.927Z,9.43
2022-11-13T07:24:03.377Z,11.57
2022-11-13T07:26:48.755Z,11.60
2022-11-13T07:29:34.067Z,11.98
2022-11-13T07:32:19.606Z,13.07
2022-11-13T07:35:05.695Z,12.35
2022-11-13T07:37:56.324Z,12.95
2022-11-13T07:40:41.794Z,12.10
2022-11-13T07:43:27.633Z,11.63
2022-11-13T07:46:13.091Z,10.75
2022-11-13T07:48:58.718Z,12.10
2022-11-13T07:51:44.106Z,12.13
2022-11-13T07:54:29.735Z,12.02
2022-11-13T07:57:15.544Z,13.93
2022-11-13T08:00:00.772Z,13.35
2022-11-13T08:02:47.760Z,11.90
2022-11-13T08:05:33.460Z,14.43
2022-11-13T08:08:19.017Z,12.82
2022-11-13T08:11:08.788Z,13.70
2022-11-13T08:13:54.118Z,14.10
2022-11-13T08:16:39.475Z,13.23
2022-11-13T08:19:24.864Z,12.60
2022-11-13T08:22:10.038Z,16.17
2022-11-13T08:24:55.796Z,12.60
2022-11-13T08:27:41.151Z,14.95
2022-11-13T08:30:28.518Z,13.13
2022-11-13T08:33:14.125Z,14.63
2022-11-13T08:36:00.578Z,14.23
2022-11-13T08:38:48.315Z,15.13
2022-11-13T08:41:33.759Z,12.57
2022-11-13T08:44:19.482Z,12.07
2022-11-13T08:47:04.960Z,14.05
2022-11-13T08:49:50.114Z,12.50
2022-11-13T08:52:35.722Z,12.90
2022-11-13T08:55:21.818Z,14.35
2022-11-13T08:58:07.102Z,15.43
2022-11-13T09:00:52.479Z,14.02
2022-11-13T09:03:38.078Z,15.43
2022-11-13T09:06:23.114Z,15.02
2022-11-13T09:09:08.841Z,15.85
2022-11-13T09:11:53.975Z,12.82
2022-11-13T09:14:39.481Z,14.73
2022-11-13T09:17:24.939Z,14.50
2022-11-13T09:20:13.859Z,14.88
2022-11-13T09:23:02.615Z,14.20
2022-11-13T09:25:48.229Z,15.25
2022-11-13T09:28:33.859Z,14.77
2022-11-13T09:31:19.671Z,14.60
2022-11-13T09:34:04.975Z,13.05
2022-11-13T09:36:50.525Z,12.98
2022-11-13T09:39:36.037Z,13.20
2022-11-13T09:42:26.661Z,16.45
2022-11-13T09:45:15.487Z,12.60
2022-11-13T09:48:23.318Z,13.00
2022-11-13T09:51:32.782Z,13.85
2022-11-13T09:54:19.231Z,12.15
2022-11-13T09:57:35.051Z,14.60
2022-11-13T10:00:22.239Z,13.25
2022-11-13T10:04:01.571Z,12.57
2022-11-13T10:07:14.168Z,12.40
2022-11-13T10:10:19.980Z,12.25
2022-11-13T10:13:14.346Z,12.25
2022-11-13T10:16:54.706Z,13.68
2022-11-13T10:20:00.473Z,12.98
2022-11-13T10:22:58.858Z,10.57
2022-11-13T10:25:45.124Z,11.25
2022-11-13T10:31:47.255Z,10.25
2022-11-13T10:34:33.269Z,10.68
2022-11-13T10:38:08.880Z,11.13
2022-11-13T10:41:22.698Z,11.57
2022-11-13T10:44:34.264Z,9.10
2022-11-13T10:47:49.070Z,8.50
2022-11-13T10:50:31.439Z,7.32
2022-11-13T10:53:18.822Z,7.78
2022-11-13T10:56:30.194Z,7.63
2022-11-13T10:59:19.076Z,6.30
2022-11-13T11:02:26.340Z,7.75
2022-11-13T11:05:22.261Z,7.38
2022-11-13T11:08:14.491Z,7.28
2022-11-13T11:11:31.631Z,5.80
2022-11-13T11:14:43.938Z,8.32
2022-11-13T11:17:59.658Z,6.30
2022-11-13T11:21:12.591Z,6.35
2022-11-13T11:24:21.217Z,6.50
2022-11-13T11:27:22.890Z,5.70
2022-11-13T11:30:23.198Z,5.35
2022-11-13T11:33:37.737Z,6.78
2022-11-13T11:36:36.695Z,6.88
2022-11-13T11:39:43.561Z,5.10
2022-11-13T11:42:59.318Z,7.60
2022-11-13T11:45:47.416Z,6.68
2022-11-13T11:48:34.276Z,6.70
2022-11-13T11:51:31.006Z,6.55
2022-11-13T11:54:40.270Z,9.95
2022-11-13T11:58:15.809Z,5.95
2022-11-13T12:01:21.460Z,6.18
2022-11-13T12:04:26.587Z,7.45
2022-11-13T12:08:04.766Z,6.22
2022-11-13T12:11:19.750Z,6.78
2022-11-13T12:14:31.587Z,5.70
2022-11-13T12:18:02.837Z,5.50
2022-11-13T12:21:15.993Z,7.05
2022-11-13T12:24:05.667Z,8.43
2022-11-13T12:27:06.129Z,6.10
2022-11-13T12:30:25.238Z,6.70
2022-11-13T12:33:28.531Z,6.40
2022-11-13T12:36:14.767Z,7.28
2022-11-13T12:39:53.887Z,7.07
2022-11-13T12:43:29.746Z,5.85
2022-11-13T12:46:16.729Z,8.45
2022-11-13T12:49:02.573Z,10.35
2022-11-13T12:52:23.890Z,8.13
2022-11-13T12:55:31.279Z,8.60
2022-11-13T12:58:33.293Z,7.22
2022-11-13T13:01:21.062Z,7.10
2022-11-13T13:04:45.170Z,7.38
2022-11-13T13:08:04.755Z,8.57
2022-11-13T13:11:15.030Z,8.88
2022-11-13T13:14:00.523Z,7.38
2022-11-13T13:16:46.149Z,7.25
2022-11-13T13:19:33.443Z,8.10
2022-11-13T13:22:33.858Z,6.78
2022-11-13T13:25:29.809Z,6.10
2022-11-13T13:28:24.471Z,9.55
2022-11-13T13:31:12.865Z,6.18
2022-11-13T13:34:54.622Z,8.63
2022-11-13T13:38:02.478Z,7.60
2022-11-13T13:41:35.990Z,9.65
2022-11-13T13:44:32.767Z,7.65
2022-11-13T13:47:35.012Z,5.32
2022-11-13T13:50:30.426Z,5.40
2022-11-13T13:53:23.956Z,6.05
2022-11-13T13:56:12.722Z,5.47
2022-11-13T13:59:00.120Z,4.75
2022-11-13T14:02:01.825Z,7.22
2022-11-13T14:04:51.344Z,9.73
2022-11-13T14:07:38.047Z,6.45
2022-11-13T14:10:28.065Z,6.15
2022-11-13T14:13:22.643Z,5.22
2022-11-13T14:16:08.236Z,4.25
2022-11-13T14:19:04.859Z,4.72
2022-11-13T14:22:02.838Z,4.85
2022-11-13T14:25:00.363Z,5.07
2022-11-13T14:27:46.103Z,5.22
2022-11-13T14:30:34.890Z,5.60
2022-11-13T14:34:03.067Z,5.13
2022-11-13T14:40:04.943Z,5.03
2022-11-13T14:42:57.860Z,4.45
2022-11-13T14:46:01.270Z,4.15
2022-11-13T14:48:55.071Z,4.05
2022-11-13T14:51:41.303Z,4.85
2022-11-13T14:55:08.298Z,7.93
2022-11-13T14:57:50.534Z,4.75
2022-11-13T15:00:38.163Z,5.28
2022-11-13T15:03:24.963Z,5.55
2022-11-13T15:06:21.848Z,4.13
2022-11-13T15:09:14.743Z,4.88
2022-11-13T15:11:59.922Z,3.90
2022-11-13T15:14:45.537Z,3.30
2022-11-13T15:17:31.269Z,5.88
2022-11-13T15:20:25.999Z,5.97
2022-11-13T15:23:15.671Z,3.90
2022-11-13T15:26:01.012Z,7.57
2022-11-13T15:28:46.536Z,7.40
2022-11-13T15:31:44.686Z,6.05
2022-11-13T15:34:29.991Z,4.82
2022-11-13T15:37:17.301Z,4.85
2022-11-13T15:40:03.334Z,5.45
2022-11-13T15:42:48.734Z,3.90
2022-11-13T15:45:34.047Z,4.03
2022-11-13T15:48:19.662Z,4.38
2022-11-13T15:51:05.305Z,4.25
2022-11-13T15:54:00.790Z,4.63
2022-11-13T15:56:47.554Z,4.57
2022-11-13T15:59:33.113Z,4.82
2022-11-13T16:02:18.947Z,9.50
2022-11-13T16:05:04.674Z,4.18
2022-11-13T16:07:49.974Z,4.13
2022-11-13T16:10:35.642Z,4.60
2022-11-13T16:13:21.195Z,5.40
2022-11-13T16:16:23.690Z,6.38
2022-11-13T16:19:17.095Z,5.78
2022-11-13T16:22:02.348Z,6.10
2022-11-13T16:24:48.213Z,6.28
2022-11-13T16:27:36.351Z,5.82
2022-11-13T16:30:26.401Z,5.45
2022-11-13T16:33:12.836Z,6.88
2022-11-13T16:35:58.042Z,7.47
2022-11-13T16:38:43.629Z,6.18
2022-11-13T16:41:31.840Z,8.20
2022-11-13T16:44:16.974Z,7.95
2022-11-13T16:47:03.146Z,7.13
2022-11-13T16:49:49.140Z,7.45
2022-11-13T16:52:34.263Z,9.60
2022-11-13T16:55:19.919Z,8.40
2022-11-13T16:58:05.743Z,8.02
2022-11-13T17:00:51.383Z,10.40
2022-11-13T17:03:37.780Z,10.13
2022-11-13T17:06:30.270Z,8.63
2022-11-13T17:09:16.014Z,7.97
2022-11-13T17:12:01.238Z,8.00
2022-11-13T17:14:47.567Z,9.57
2022-11-13T17:17:32.847Z,10.10
2022-11-13T17:20:19.360Z,10.63
2022-11-13T17:23:05.110Z,9.60
2022-11-13T17:25:50.298Z,8.93
2022-11-13T17:28:36.365Z,8.63
2022-11-13T17:31:22.061Z,14.57
2022-11-13T17:34:07.836Z,18.25
2022-11-13T17:36:56.570Z,19.02
2022-11-13T17:39:41.652Z,18.33
2022-11-13T17:42:28.511Z,22.13
2022-11-13T17:45:13.767Z,22.33
2022-11-13T17:47:59.243Z,17.20
2022-11-13T17:50:45.413Z,10.38
2022-11-13T17:53:31.801Z,11.40
2022-11-13T17:56:19.975Z,10.90
2022-11-13T17:59:05.550Z,13.00
2022-11-13T18:01:50.681Z,13.10
2022-11-13T18:04:36.182Z,14.32
2022-11-13T18:07:21.811Z,12.10
2022-11-13T18:10:08.150Z,14.20
2022-11-13T18:12:53.631Z,14.55
2022-11-13T18:15:40.491Z,15.48
2022-11-13T18:18:25.926Z,14.80
2022-11-13T18:21:23.489Z,13.18
2022-11-13T18:24:17.005Z,14.00
2022-11-13T18:27:05.903Z,12.57
2022-11-13T18:29:51.216Z,11.20
2022-11-13T18:32:36.651Z,12.63
2022-11-13T18:35:22.219Z,13.93
2022-11-13T18:38:07.792Z,14.20
2022-11-13T18:41:05.393Z,14.50
2022-11-13T18:43:52.136Z,15.52
2022-11-13T18:46:39.063Z,11.30
2022-11-13T18:49:24.403Z,11.68
2022-11-13T18:52:09.982Z,11.32
2022-11-13T18:54:55.286Z,16.15
2022-11-13T18:57:40.842Z,30.77
2022-11-13T19:00:26.187Z,38.70
2022-11-13T19:03:11.644Z,53.85
2022-11-13T19:05:57.139Z,50.80
2022-11-13T19:08:44.108Z,43.35
2022-11-13T19:11:30.970Z,35.35
2022-11-13T19:14:18.864Z,34.35
2022-11-13T19:17:04.111Z,22.75
2022-11-13T19:19:49.591Z,24.20
2022-11-13T19:22:35.125Z,23.27
2022-11-13T19:25:20.693Z,21.92
2022-11-13T19:28:06.065Z,19.30
2022-11-13T19:30:54.610Z,21.15
2022-11-13T19:33:41.163Z,18.70
2022-11-13T19:36:29.258Z,22.67
2022-11-13T19:39:15.517Z,18.88
2022-11-13T19:42:01.069Z,21.35
2022-11-13T19:44:46.483Z,22.92
2022-11-13T19:47:32.047Z,19.70
2022-11-13T19:50:17.814Z,23.90
2022-11-13T19:53:03.232Z,22.90
2022-11-13T19:55:55.519Z,20.75
2022-11-13T19:58:44.114Z,25.05
2022-11-13T20:01:31.825Z,22.58
2022-11-13T20:04:17.756Z,25.55
2022-11-13T20:07:03.220Z,26.60
2022-11-13T20:09:48.705Z,24.70
2022-11-13T20:12:34.295Z,22.15
2022-11-13T20:15:19.967Z,24.73
2022-11-13T20:18:05.575Z,23.70
2022-11-13T20:20:54.742Z,24.92
2022-11-13T20:23:40.835Z,23.70
2022-11-13T20:26:28.264Z,20.40
2022-11-13T20:29:13.809Z,20.00
2022-11-13T20:32:00.416Z,22.00
2022-11-13T20:34:45.667Z,21.77
2022-11-13T20:37:31.078Z,19.42
2022-11-13T20:40:17.686Z,21.50
2022-11-13T20:43:03.142Z,21.50
2022-11-13T20:45:48.849Z,20.98
2022-11-13T20:48:34.387Z,20.30
2022-11-13T20:51:23.630Z,21.50
2022-11-13T20:54:09.238Z,22.73
2022-11-13T20:56:54.538Z,20.95
2022-11-13T20:59:40.074Z,22.98
2022-11-13T21:02:25.955Z,20.67
2022-11-13T21:05:11.129Z,23.17
2022-11-13T21:07:56.617Z,24.55
2022-11-13T21:10:41.815Z,22.63
2022-11-13T21:13:28.017Z,26.80
2022-11-13T21:16:13.370Z,30.23
2022-11-13T21:18:59.929Z,31.63
2022-11-13T21:21:45.390Z,32.17
2022-11-13T21:24:31.871Z,30.42
2022-11-13T21:27:17.445Z,30.27
2022-11-13T21:30:02.703Z,30.35
2022-11-13T21:32:48.298Z,33.05
2022-11-13T21:35:33.753Z,30.48
2022-11-13T21:38:19.210Z,34.00
2022-11-13T21:41:22.802Z,37.50
2022-11-13T21:44:10.607Z,34.60
2022-11-13T21:46:56.403Z,28.73
2022-11-13T21:49:42.478Z,26.10
2022-11-13T21:52:28.110Z,27.10
2022-11-13T21:55:13.440Z,27.45
2022-11-13T21:57:58.858Z,26.70
2022-11-13T22:00:44.448Z,27.52
2022-11-13T22:03:29.935Z,29.08
2022-11-13T22:06:18.298Z,24.45
2022-11-13T22:09:07.804Z,21.42
2022-11-13T22:11:53.352Z,28.25
2022-11-13T22:14:38.595Z,35.17
2022-11-13T22:17:24.227Z,28.40
2022-11-13T22:20:10.129Z,29.40
2022-11-13T22:22:55.344Z,26.67
2022-11-13T22:25:40.849Z,30.67
2022-11-13T22:28:26.524Z,35.92
2022-11-13T22:31:21.696Z,32.65
2022-11-13T22:34:07.230Z,33.53
2022-11-13T22:36:52.296Z,33.95
2022-11-13T22:39:37.845Z,28.88
2022-11-13T22:42:23.063Z,26.73
2022-11-13T22:45:22.884Z,26.15
2022-11-13T22:48:11.185Z,21.50
2022-11-13T22:50:56.962Z,21.98
2022-11-13T22:53:50.810Z,20.85
2022-11-13T22:56:38.472Z,24.02
2022-11-13T22:59:23.838Z,28.10
2022-11-13T23:02:09.384Z,25.50
2022-11-13T23:04:54.522Z,21.55
2022-11-13T23:07:40.042Z,24.60
2022-11-13T23:10:25.592Z,23.20
2022-11-13T23:13:10.906Z,22.05
2022-11-13T23:15:56.448Z,21.38
2022-11-13T23:18:42.466Z,17.05
2022-11-13T23:21:29.691Z,19.85
2022-11-13T23:24:15.070Z,17.60
2022-11-13T23:27:00.578Z,17.27
2022-11-13T23:29:50.104Z,18.40
2022-11-13T23:32:36.063Z,18.42
2022-11-13T23:35:21.486Z,16.55
2022-11-13T23:38:07.329Z,17.58
2022-11-13T23:40:58.181Z,16.65
2022-11-13T23:46:48.566Z,19.63
2022-11-13T23:49:34.076Z,18.67
2022-11-13T23:52:19.474Z,21.50
2022-11-13T23:55:05.632Z,19.05
2022-11-13T23:58:00.274Z,17.45
